This is the latest recevied weather packets stored in our database for station/object WK7G. If no packets are shown the sender has not sent any weather packets the latest 1 day(s).
| Time | Temp. | Humidity | Pressure | Rain* | Wind** | Luminosity | Snow |
|---|---|---|---|---|---|---|---|
| 1778090614 | 10° C | 38% | 1012.2 hPa | 0 mm | - | 891 W/m² | - |
| 1778090310 | 10° C | 37% | 1012.3 hPa | 0 mm | - | 888 W/m² | - |
| 1778089704 | 8.33° C | 36% | 1012.3 hPa | 0 mm | - | 872 W/m² | - |
| 1778088189 | 8.33° C | 34% | 1012.3 hPa | 0 mm | - | 866 W/m² | - |
| 1778086977 | 7.22° C | 35% | 1012.2 hPa | 0 mm | - | 851 W/m² | - |
| 1778086676 | 7.22° C | 35% | 1012.3 hPa | 0 mm | - | 871 W/m² | - |
| 1778086373 | 7.22° C | 33% | 1012.2 hPa | 0 mm | - | 851 W/m² | - |
| 1778083644 | 5.56° C | 41% | 1012.3 hPa | 0 mm | - | 704 W/m² | - |
| 1778082736 | 5° C | 40% | 1012.4 hPa | 0 mm | - | 673 W/m² | - |
| 1778080387 | 3.89° C | 44% | 1012.5 hPa | 0 mm | - | 434 W/m² | - |
| 1778079174 | 4.44° C | 46% | 1012.7 hPa | 0 mm | - | 370 W/m² | - |
| 1778078266 | 2.78° C | 49% | 1012.4 hPa | 0 mm | - | 320 W/m² | - |
| 1778077963 | 2.78° C | 50% | 1012.5 hPa | 0 mm | - | 287 W/m² | - |
| 1778075846 | 0.56° C | 57% | 1012.4 hPa | 0 mm | - | 184 W/m² | - |
| 1778075542 | 0.56° C | 56% | 1012.4 hPa | 0 mm | - | 163 W/m² | - |
| 1778075239 | 0.56° C | 57% | 1012.2 hPa | 0 mm | - | 136 W/m² | - |
| 1778074935 | 0.56° C | 57% | 1012.3 hPa | 0 mm | - | 130 W/m² | - |
| 1778072814 | -3.33° C | 68% | 1011.8 hPa | 0 mm | - | 37 W/m² | - |
| 1778071907 | -4.44° C | 71% | 1011.8 hPa | 0 mm | - | 27 W/m² | - |
| 1778071302 | -5° C | 73% | 1011.8 hPa | 0 mm | - | 19 W/m² | - |
| 1778069486 | -5° C | 72% | 1011.2 hPa | 0 mm | - | 2 W/m² | - |
| 1778069184 | -5° C | 72% | 1011.1 hPa | 0 mm | - | 0 W/m² | - |
| 1778066461 | -4.44° C | 70% | 1011.2 hPa | 0 mm | - | 0 W/m² | - |
| 1778066159 | -4.44° C | 71% | 1011.1 hPa | 0 mm | - | 0 W/m² | - |
| 1778065856 | -4.44° C | 70% | 1011.1 hPa | 0 mm | - | 0 W/m² | - |
* Rain latest hour (hover to see other rain measurements)
** Current wind speed in m/s (hover to see current wind gust speed)